createdAt,value
2023-03-13T00:01:45.497Z,12.80
2023-03-13T00:04:31.008Z,12.80
2023-03-13T00:07:16.643Z,12.80
2023-03-13T00:10:02.334Z,12.80
2023-03-13T00:12:47.910Z,12.90
2023-03-13T00:15:33.589Z,12.80
2023-03-13T00:18:19.029Z,12.90
2023-03-13T00:21:08.540Z,13.00
2023-03-13T00:23:54.209Z,13.00
2023-03-13T00:26:39.680Z,13.00
2023-03-13T00:29:25.306Z,12.90
2023-03-13T00:32:11.538Z,12.90
2023-03-13T00:34:57.050Z,12.90
2023-03-13T00:37:43.617Z,12.90
2023-03-13T00:40:29.244Z,13.00
2023-03-13T00:43:14.871Z,13.00
2023-03-13T00:46:01.017Z,12.90
2023-03-13T00:48:47.609Z,12.80
2023-03-13T00:51:33.147Z,12.90
2023-03-13T00:54:18.980Z,12.80
2023-03-13T00:57:04.509Z,12.80
2023-03-13T00:59:50.083Z,12.70
2023-03-13T01:02:41.065Z,12.70
2023-03-13T01:05:26.518Z,12.70
2023-03-13T01:08:12.149Z,12.70
2023-03-13T01:11:05.593Z,12.80
2023-03-13T01:13:54.550Z,12.80
2023-03-13T01:16:40.493Z,12.80
2023-03-13T01:19:26.889Z,12.70
2023-03-13T01:22:12.730Z,12.80
2023-03-13T01:24:58.011Z,12.70
2023-03-13T01:27:43.516Z,12.70
2023-03-13T01:30:29.337Z,12.70
2023-03-13T01:33:15.158Z,12.60
2023-03-13T01:36:04.240Z,12.60
2023-03-13T01:38:50.890Z,12.60
2023-03-13T01:41:37.400Z,12.60
2023-03-13T01:44:26.914Z,12.60
2023-03-13T01:47:13.932Z,12.70
2023-03-13T01:50:19.655Z,12.60
2023-03-13T01:53:10.037Z,12.50
2023-03-13T01:55:56.111Z,12.50
2023-03-13T01:58:42.029Z,12.50
2023-03-13T02:01:27.889Z,12.40
2023-03-13T02:04:14.155Z,12.40
2023-03-13T02:07:01.689Z,12.40
2023-03-13T02:09:51.457Z,12.50
2023-03-13T02:12:39.079Z,12.50
2023-03-13T02:15:26.092Z,12.40
2023-03-13T02:18:11.778Z,12.50
2023-03-13T02:21:02.572Z,12.40
2023-03-13T02:23:53.441Z,12.40
2023-03-13T02:26:39.269Z,12.50
2023-03-13T02:29:25.411Z,12.50
2023-03-13T02:32:11.320Z,12.50
2023-03-13T02:34:58.907Z,12.40
2023-03-13T02:37:47.029Z,12.40
2023-03-13T02:40:38.877Z,12.40
2023-03-13T02:43:27.724Z,12.30
2023-03-13T02:46:15.181Z,12.30
2023-03-13T02:49:22.153Z,12.40
2023-03-13T02:52:19.804Z,12.40
2023-03-13T02:55:08.554Z,12.50
2023-03-13T02:57:54.071Z,12.50
2023-03-13T03:00:39.644Z,12.40
2023-03-13T03:03:25.341Z,12.30
2023-03-13T03:06:10.895Z,12.30
2023-03-13T03:08:56.582Z,12.30
2023-03-13T03:11:44.566Z,12.20
2023-03-13T03:14:33.249Z,12.20
2023-03-13T03:17:20.281Z,12.20
2023-03-13T03:20:11.942Z,12.20
2023-03-13T03:23:00.423Z,12.20
2023-03-13T03:25:46.154Z,12.20
2023-03-13T03:28:32.100Z,12.10
2023-03-13T03:31:19.516Z,12.00
2023-03-13T03:34:05.204Z,11.90
2023-03-13T03:36:50.489Z,12.00
2023-03-13T03:39:36.701Z,12.00
2023-03-13T03:42:23.771Z,12.00
2023-03-13T03:45:09.533Z,12.00
2023-03-13T03:47:54.928Z,12.00
2023-03-13T03:50:40.465Z,12.00
2023-03-13T03:53:26.390Z,11.90
2023-03-13T03:56:12.354Z,12.00
2023-03-13T03:59:03.915Z,12.00
2023-03-13T04:02:00.305Z,12.00
2023-03-13T04:04:47.820Z,12.00
2023-03-13T04:07:48.457Z,12.00
2023-03-13T04:10:33.890Z,12.00
2023-03-13T04:13:19.534Z,11.90
2023-03-13T04:16:08.725Z,12.00
2023-03-13T04:18:54.939Z,12.00
2023-03-13T04:21:42.237Z,12.00
2023-03-13T04:24:31.851Z,11.90
2023-03-13T04:27:17.501Z,11.90
2023-03-13T04:30:04.935Z,11.90
2023-03-13T04:32:59.697Z,12.00
2023-03-13T04:36:05.687Z,12.00
2023-03-13T04:39:16.799Z,11.90
2023-03-13T04:42:20.783Z,12.00
2023-03-13T04:45:22.944Z,11.90
2023-03-13T04:48:24.297Z,12.00
2023-03-13T04:51:28.421Z,12.00
2023-03-13T04:54:37.057Z,12.10
2023-03-13T04:57:28.516Z,12.10
2023-03-13T05:00:22.775Z,12.10
2023-03-13T05:03:25.664Z,12.00
2023-03-13T05:06:26.648Z,12.10
2023-03-13T05:09:24.258Z,12.00
2023-03-13T05:12:36.755Z,12.20
2023-03-13T05:15:29.365Z,12.50
2023-03-13T05:18:32.496Z,12.80
2023-03-13T05:21:43.896Z,12.90
2023-03-13T05:24:58.358Z,13.10
2023-03-13T05:28:16.176Z,13.30
2023-03-13T05:31:12.454Z,13.50
2023-03-13T05:34:20.711Z,13.60
2023-03-13T05:37:24.822Z,13.70
2023-03-13T05:40:32.926Z,13.70
2023-03-13T05:43:39.093Z,13.80
2023-03-13T05:46:53.625Z,13.90
2023-03-13T05:49:57.916Z,14.00
2023-03-13T05:53:03.729Z,14.00
2023-03-13T05:56:21.402Z,14.00
2023-03-13T05:59:14.974Z,14.00
2023-03-13T06:02:09.307Z,14.10
2023-03-13T06:04:59.661Z,14.10
2023-03-13T06:07:45.235Z,14.10
2023-03-13T06:10:31.065Z,14.20
2023-03-13T06:13:20.306Z,14.20
2023-03-13T06:16:09.382Z,14.20
2023-03-13T06:18:59.731Z,14.30
2023-03-13T06:21:45.073Z,14.30
2023-03-13T06:24:30.931Z,14.30
2023-03-13T06:27:16.764Z,14.40
2023-03-13T06:30:03.126Z,14.40
2023-03-13T06:32:50.507Z,14.40
2023-03-13T06:35:46.247Z,14.50
2023-03-13T06:38:40.659Z,14.50
2023-03-13T06:41:26.362Z,14.40
2023-03-13T06:44:11.750Z,14.50
2023-03-13T06:46:57.560Z,14.50
2023-03-13T06:49:43.440Z,14.50
2023-03-13T06:52:42.774Z,14.50
2023-03-13T06:55:28.585Z,14.60
2023-03-13T06:58:30.661Z,14.60
2023-03-13T07:01:17.889Z,14.60
2023-03-13T07:04:03.191Z,14.60
2023-03-13T07:06:48.999Z,14.60
2023-03-13T07:09:34.605Z,14.70
2023-03-13T07:12:20.596Z,14.70
2023-03-13T07:15:06.585Z,14.70
2023-03-13T07:17:51.994Z,14.80
2023-03-13T07:20:37.535Z,14.80
2023-03-13T07:23:23.803Z,14.80
2023-03-13T07:26:13.137Z,14.90
2023-03-13T07:28:58.639Z,14.90
2023-03-13T07:31:44.293Z,14.90
2023-03-13T07:34:29.922Z,14.90
2023-03-13T07:37:16.199Z,14.90
2023-03-13T07:40:01.993Z,15.00
2023-03-13T07:42:47.471Z,15.00
2023-03-13T07:45:33.508Z,15.00
2023-03-13T07:48:19.382Z,15.10
2023-03-13T07:51:06.008Z,15.00
2023-03-13T07:53:52.083Z,15.00
2023-03-13T07:56:37.849Z,15.10
2023-03-13T07:59:23.486Z,15.10
2023-03-13T08:02:12.521Z,15.10
2023-03-13T08:04:59.115Z,15.10
2023-03-13T08:07:45.200Z,15.10
2023-03-13T08:10:31.004Z,15.20
2023-03-13T08:13:16.468Z,15.20
2023-03-13T08:16:06.506Z,15.20
2023-03-13T08:18:55.906Z,15.20
2023-03-13T08:21:41.508Z,15.30
2023-03-13T08:24:26.984Z,15.30
2023-03-13T08:27:12.529Z,15.30
2023-03-13T08:30:00.214Z,15.30
2023-03-13T08:32:45.577Z,15.30
2023-03-13T08:35:31.311Z,15.40
2023-03-13T08:38:16.863Z,15.40
2023-03-13T08:41:02.421Z,15.40
2023-03-13T08:43:47.874Z,15.50
2023-03-13T08:46:35.044Z,15.50
2023-03-13T08:49:20.610Z,15.50
2023-03-13T08:52:06.740Z,15.60
2023-03-13T08:54:52.242Z,15.60
2023-03-13T08:57:37.806Z,15.60
2023-03-13T09:00:23.433Z,15.60
2023-03-13T09:03:08.924Z,15.60
2023-03-13T09:05:56.729Z,15.60
2023-03-13T09:08:42.513Z,15.60
2023-03-13T09:11:28.305Z,15.60
2023-03-13T09:14:13.740Z,15.60
2023-03-13T09:16:59.501Z,15.70
2023-03-13T09:19:57.841Z,15.70
2023-03-13T09:22:48.046Z,15.70
2023-03-13T09:25:33.715Z,15.70
2023-03-13T09:28:19.398Z,15.70
2023-03-13T09:31:12.310Z,15.70
2023-03-13T09:33:57.655Z,15.70
2023-03-13T09:36:43.146Z,15.70
2023-03-13T09:39:28.626Z,15.70
2023-03-13T09:42:16.154Z,15.70
2023-03-13T09:45:17.713Z,15.70
2023-03-13T09:48:13.220Z,15.70
2023-03-13T09:51:05.439Z,15.70
2023-03-13T09:54:17.194Z,15.80
2023-03-13T09:57:21.725Z,15.80
2023-03-13T10:00:16.457Z,15.80
2023-03-13T10:03:22.295Z,15.80
2023-03-13T10:06:17.169Z,15.90
2023-03-13T10:09:02.818Z,15.90
2023-03-13T10:12:04.362Z,16.00
2023-03-13T10:15:05.266Z,16.00
2023-03-13T10:17:50.840Z,16.00
2023-03-13T10:20:36.597Z,16.00
2023-03-13T10:23:38.022Z,16.00
2023-03-13T10:26:26.117Z,16.00
2023-03-13T10:29:21.311Z,16.10
2023-03-13T10:32:08.185Z,16.10
2023-03-13T10:34:58.082Z,16.20
2023-03-13T10:37:44.032Z,16.20
2023-03-13T10:40:29.667Z,16.30
2023-03-13T10:43:21.287Z,16.30
2023-03-13T10:46:08.685Z,16.30
2023-03-13T10:48:55.298Z,16.30
2023-03-13T10:51:44.643Z,16.30
2023-03-13T10:54:37.519Z,16.40
2023-03-13T10:57:25.891Z,16.40
2023-03-13T11:00:23.840Z,16.40
2023-03-13T11:03:20.307Z,16.40
2023-03-13T11:06:06.140Z,16.50
2023-03-13T11:08:58.541Z,16.50
2023-03-13T11:11:51.501Z,16.50
2023-03-13T11:14:36.974Z,16.50
2023-03-13T11:17:39.799Z,16.50
2023-03-13T11:20:27.741Z,16.50
2023-03-13T11:23:26.612Z,16.60
2023-03-13T11:26:21.279Z,16.70
2023-03-13T11:29:18.369Z,16.60
2023-03-13T11:32:08.199Z,16.70
2023-03-13T11:35:04.064Z,16.70
2023-03-13T11:37:51.323Z,16.70
2023-03-13T11:40:49.842Z,16.70
2023-03-13T11:43:42.416Z,16.80
2023-03-13T11:46:37.195Z,16.80
2023-03-13T11:49:42.932Z,16.80
2023-03-13T11:52:44.093Z,16.80
2023-03-13T11:55:35.594Z,16.80
2023-03-13T11:58:21.319Z,16.80
2023-03-13T12:01:07.010Z,16.80
2023-03-13T12:04:01.869Z,16.80
2023-03-13T12:06:54.635Z,16.80
2023-03-13T12:09:43.454Z,16.80
2023-03-13T12:12:40.412Z,16.80
2023-03-13T12:15:40.329Z,16.90
2023-03-13T12:18:36.788Z,16.90
2023-03-13T12:21:22.123Z,17.00
2023-03-13T12:24:28.328Z,17.00
2023-03-13T12:27:18.423Z,17.00
2023-03-13T12:30:18.233Z,17.00
2023-03-13T12:33:14.508Z,17.00
2023-03-13T12:36:11.013Z,17.00
2023-03-13T12:39:11.882Z,17.00
2023-03-13T12:42:07.683Z,17.00
2023-03-13T12:44:53.574Z,17.10
2023-03-13T12:48:03.207Z,17.10
2023-03-13T12:50:57.984Z,17.10
2023-03-13T12:53:43.578Z,17.10
2023-03-13T12:56:32.291Z,17.10
2023-03-13T12:59:27.004Z,17.10
2023-03-13T13:02:22.587Z,17.10
2023-03-13T13:05:18.012Z,17.10
2023-03-13T13:08:04.598Z,17.10
2023-03-13T13:10:50.165Z,17.10
2023-03-13T13:13:39.184Z,17.10
2023-03-13T13:16:25.913Z,17.20
2023-03-13T13:19:31.557Z,17.20
2023-03-13T13:22:39.349Z,17.30
2023-03-13T13:25:36.240Z,17.30
2023-03-13T13:28:23.900Z,17.30
2023-03-13T13:31:29.344Z,17.40
2023-03-13T13:34:38.123Z,17.40
2023-03-13T13:37:23.585Z,17.40
2023-03-13T13:40:29.608Z,17.50
2023-03-13T13:43:22.490Z,17.50
2023-03-13T13:46:09.212Z,17.50
2023-03-13T13:49:06.851Z,17.50
2023-03-13T13:52:01.714Z,17.40
2023-03-13T13:54:47.366Z,17.40
2023-03-13T13:57:37.133Z,17.50
2023-03-13T14:00:26.034Z,17.50
2023-03-13T14:03:17.004Z,17.50
2023-03-13T14:06:04.054Z,17.40
2023-03-13T14:08:52.013Z,17.40
2023-03-13T14:11:38.602Z,17.40
2023-03-13T14:14:24.074Z,17.50
2023-03-13T14:17:09.813Z,17.40
2023-03-13T14:19:55.144Z,17.50
2023-03-13T14:22:50.765Z,17.50
2023-03-13T14:25:44.358Z,17.50
2023-03-13T14:28:30.067Z,17.50
2023-03-13T14:31:22.917Z,17.50
2023-03-13T14:34:11.316Z,17.50
2023-03-13T14:37:14.857Z,17.40
2023-03-13T14:40:19.060Z,17.40
2023-03-13T14:43:05.325Z,17.40
2023-03-13T14:45:51.326Z,17.40
2023-03-13T14:48:37.517Z,17.40
2023-03-13T14:51:27.806Z,17.50
2023-03-13T14:54:24.760Z,17.50
2023-03-13T14:57:10.121Z,17.50
2023-03-13T14:59:56.373Z,17.50
2023-03-13T15:02:43.238Z,17.50
2023-03-13T15:05:32.437Z,17.50
2023-03-13T15:08:18.994Z,17.50
2023-03-13T15:11:17.893Z,17.50
2023-03-13T15:14:03.649Z,17.50
2023-03-13T15:16:49.185Z,17.50
2023-03-13T15:19:34.810Z,17.60
2023-03-13T15:22:24.255Z,17.60
2023-03-13T15:25:20.541Z,17.70
2023-03-13T15:28:06.177Z,17.80
2023-03-13T15:30:52.291Z,17.90
2023-03-13T15:33:37.825Z,17.90
2023-03-13T15:36:23.274Z,17.90
2023-03-13T15:39:15.140Z,17.90
2023-03-13T15:42:00.625Z,17.90
2023-03-13T15:44:46.308Z,17.90
2023-03-13T15:47:31.972Z,17.90
2023-03-13T15:50:18.660Z,17.90
2023-03-13T15:53:07.039Z,17.90
2023-03-13T15:55:53.428Z,17.90
2023-03-13T15:58:39.383Z,17.80
2023-03-13T16:01:24.908Z,17.80
2023-03-13T16:04:11.315Z,17.80
2023-03-13T16:06:58.063Z,17.80
2023-03-13T16:09:44.200Z,17.80
2023-03-13T16:12:30.201Z,17.80
2023-03-13T16:15:15.735Z,17.80
2023-03-13T16:18:01.715Z,17.80
2023-03-13T16:20:47.894Z,17.80
2023-03-13T16:23:33.072Z,17.80
2023-03-13T16:26:22.189Z,17.80
2023-03-13T16:29:10.388Z,17.80
2023-03-13T16:31:55.863Z,17.80
2023-03-13T16:34:43.132Z,17.90
2023-03-13T16:37:28.619Z,18.00
2023-03-13T16:40:16.409Z,18.10
2023-03-13T16:43:01.861Z,18.00
2023-03-13T16:45:48.008Z,18.20
2023-03-13T16:48:33.536Z,18.20
2023-03-13T16:51:20.350Z,18.20
2023-03-13T16:54:06.680Z,18.20
2023-03-13T16:56:52.214Z,18.20
2023-03-13T16:59:37.982Z,18.20
2023-03-13T17:02:23.361Z,18.10
2023-03-13T17:05:09.218Z,18.10
2023-03-13T17:07:55.203Z,18.00
2023-03-13T17:10:40.719Z,18.00
2023-03-13T17:13:26.493Z,17.90
2023-03-13T17:16:20.173Z,17.90
2023-03-13T17:19:08.828Z,17.90
2023-03-13T17:21:54.503Z,17.90
2023-03-13T17:24:40.211Z,17.90
2023-03-13T17:27:25.611Z,17.90
2023-03-13T17:30:16.973Z,17.80
2023-03-13T17:33:02.467Z,17.80
2023-03-13T17:35:48.247Z,17.80
2023-03-13T17:38:34.000Z,17.80
2023-03-13T17:41:21.487Z,17.80
2023-03-13T17:44:09.917Z,17.70
2023-03-13T17:46:55.658Z,17.80
2023-03-13T17:49:41.845Z,17.80
2023-03-13T17:52:27.746Z,17.70
2023-03-13T17:55:13.493Z,17.80
2023-03-13T17:57:59.306Z,17.80
2023-03-13T18:00:47.489Z,17.70
2023-03-13T18:03:33.152Z,17.70
2023-03-13T18:06:22.017Z,17.70
2023-03-13T18:09:08.794Z,17.60
2023-03-13T18:11:54.291Z,17.60
2023-03-13T18:14:40.536Z,17.60
2023-03-13T18:17:31.233Z,17.60
2023-03-13T18:20:18.936Z,17.60
2023-03-13T18:23:04.183Z,17.60
2023-03-13T18:25:49.760Z,17.60
2023-03-13T18:28:35.360Z,17.60
2023-03-13T18:31:21.017Z,17.60
2023-03-13T18:34:06.609Z,17.60
2023-03-13T18:36:52.575Z,17.60
2023-03-13T18:39:38.299Z,17.60
2023-03-13T18:42:24.246Z,17.60
2023-03-13T18:45:37.353Z,17.60
2023-03-13T18:48:22.581Z,17.60
2023-03-13T18:51:09.258Z,17.60
2023-03-13T18:53:55.204Z,17.60
2023-03-13T18:56:40.552Z,17.60
2023-03-13T18:59:26.257Z,17.60
2023-03-13T19:02:12.960Z,17.60
2023-03-13T19:04:58.874Z,17.60
2023-03-13T19:07:44.673Z,17.60
2023-03-13T19:10:31.360Z,17.60
2023-03-13T19:13:16.954Z,17.60
2023-03-13T19:16:02.597Z,17.60
2023-03-13T19:18:48.719Z,17.60
2023-03-13T19:21:34.004Z,17.60
2023-03-13T19:24:21.790Z,17.70
2023-03-13T19:27:07.166Z,17.60
2023-03-13T19:29:52.747Z,17.70
2023-03-13T19:32:39.365Z,17.60
2023-03-13T19:35:25.017Z,17.70
2023-03-13T19:38:11.798Z,17.70
2023-03-13T19:40:57.059Z,17.70
2023-03-13T19:43:42.788Z,17.70
2023-03-13T19:46:29.183Z,17.70
2023-03-13T19:49:15.676Z,17.70
2023-03-13T19:52:01.286Z,17.70
2023-03-13T19:54:46.987Z,17.70
2023-03-13T19:57:32.577Z,17.70
2023-03-13T20:00:23.158Z,17.70
2023-03-13T20:03:08.934Z,17.70
2023-03-13T20:05:54.478Z,17.70
2023-03-13T20:08:40.269Z,17.70
2023-03-13T20:11:26.521Z,17.70
2023-03-13T20:14:11.924Z,17.70
2023-03-13T20:16:57.529Z,17.70
2023-03-13T20:19:43.060Z,17.70
2023-03-13T20:22:28.802Z,17.70
2023-03-13T20:25:16.021Z,17.70
2023-03-13T20:28:01.418Z,17.70
2023-03-13T20:30:48.718Z,17.70
2023-03-13T20:33:35.479Z,17.70
2023-03-13T20:36:22.228Z,17.70
2023-03-13T20:39:08.213Z,17.70
2023-03-13T20:41:57.450Z,17.70
2023-03-13T20:44:43.004Z,17.70
2023-03-13T20:47:28.632Z,17.70
2023-03-13T20:50:14.222Z,17.70
2023-03-13T20:52:59.911Z,17.60
2023-03-13T20:55:45.614Z,17.50
2023-03-13T20:58:30.951Z,17.30
2023-03-13T21:01:18.499Z,17.00
2023-03-13T21:04:04.966Z,17.00
2023-03-13T21:06:50.416Z,17.00
2023-03-13T21:09:35.763Z,16.60
2023-03-13T21:12:21.304Z,16.40
2023-03-13T21:15:08.029Z,16.10
2023-03-13T21:17:53.888Z,16.00
2023-03-13T21:20:39.405Z,15.80
2023-03-13T21:23:25.113Z,15.80
2023-03-13T21:26:10.828Z,15.60
2023-03-13T21:28:56.589Z,15.50
2023-03-13T21:31:42.322Z,15.50
2023-03-13T21:34:28.016Z,15.30
2023-03-13T21:37:14.002Z,15.20
2023-03-13T21:39:59.635Z,15.10
2023-03-13T21:42:45.319Z,15.10
2023-03-13T21:45:30.937Z,15.00
2023-03-13T21:48:16.649Z,14.90
2023-03-13T21:51:02.306Z,14.90
2023-03-13T21:53:47.898Z,14.90
2023-03-13T21:56:33.398Z,14.80
2023-03-13T21:59:21.742Z,14.80
2023-03-13T22:02:07.069Z,14.80
2023-03-13T22:04:52.704Z,14.60
2023-03-13T22:07:38.481Z,14.70
2023-03-13T22:10:24.039Z,14.70
2023-03-13T22:13:10.252Z,14.60
2023-03-13T22:15:55.817Z,14.60
2023-03-13T22:18:43.175Z,14.50
2023-03-13T22:21:28.737Z,14.60
2023-03-13T22:24:14.182Z,14.50
2023-03-13T22:26:59.922Z,14.50
2023-03-13T22:29:45.709Z,14.40
2023-03-13T22:32:31.387Z,14.40
2023-03-13T22:35:17.197Z,14.30
2023-03-13T22:38:03.312Z,14.30
2023-03-13T22:40:56.116Z,14.30
2023-03-13T22:43:41.854Z,14.30
2023-03-13T22:46:27.620Z,14.30
2023-03-13T22:49:13.181Z,14.30
2023-03-13T22:51:59.410Z,14.30
2023-03-13T22:54:46.586Z,14.20
2023-03-13T22:57:32.207Z,14.30
2023-03-13T23:00:17.881Z,14.20
2023-03-13T23:03:03.269Z,14.20
2023-03-13T23:05:49.043Z,14.20
2023-03-13T23:08:35.175Z,14.20
2023-03-13T23:11:21.084Z,14.20
2023-03-13T23:14:06.873Z,14.10
2023-03-13T23:16:52.138Z,14.20
2023-03-13T23:19:37.833Z,14.10
2023-03-13T23:22:28.072Z,14.10
2023-03-13T23:25:14.215Z,14.20
2023-03-13T23:27:59.791Z,14.10
2023-03-13T23:30:45.424Z,14.10
2023-03-13T23:33:31.041Z,14.10
2023-03-13T23:36:17.996Z,14.00
2023-03-13T23:39:04.628Z,14.00
2023-03-13T23:41:49.959Z,13.90
2023-03-13T23:44:35.672Z,13.90
2023-03-13T23:47:21.369Z,14.00
2023-03-13T23:50:07.080Z,13.90
2023-03-13T23:52:52.463Z,14.00
2023-03-13T23:55:38.035Z,14.00
2023-03-13T23:58:23.806Z,14.00
